Weather, Runways
& NOTAMs

CYYZ - Toronto-Lester B. Pearson International
CYYZ 190700Z 19010KT 15SM SKC 24/21 A2978 RMK SLP082 DENSITY ALT 1900FT
Suggested Runways: Departures: 23, Arrivals: 24R
CYOW - Ottawa Macdonald-Cartier International
CYOW 190700Z 16003KT 15SM SCT035 BKN100 20/18 A2977 RMK SC3AC4 SLP083 DENSITY ALT 1200FT
Suggested Runway: 14
CYTZ - Billy Bishop Toronto City
CYTZ 190725Z AUTO 26005KT 6SM BR CLR 22/21 A2977 RMK SLP081 DENSITY ALT 1200FT
Suggested Runway: 26
CYXU - London International
CYXU 190700Z 24010KT 15SM FEW250 24/21 A2984 RMK CI2 SLP100 DENSITY ALT 2300FT
Suggested Runway: 15
CYHM - John C. Munro Hamilton International
CYHM 190700Z 20007KT 15SM SKC 22/22 A2982 RMK SLP094 DENSITY ALT 1900FT
Suggested Runway: 12
CYKF - Region of Waterloo International
CYKF 190700Z AUTO 24009KT 9SM CLR 23/21 A2981 RMK SLP090 DENSITY ALT 2200FT
Suggested Runway: 26
CYAM - Sault Ste. Marie
CYAM 190700Z 21005KT 15SM SCT008 BKN042 21/20 A2968 RMK CF4CU1 SLP051 DENSITY ALT 1700FT
Suggested Runway: 22
CYTR - Canadian Forces Base Trenton
CYTR 190700Z 23002KT 15SM SKC 22/20 A2978 RMK SLP086
Suggested Runway: 24
CYOO - Toronto/Oshawa Executive
CYOO 190700Z AUTO 23004KT 9SM CLR 22/21 A2978 RMK SLP083 DENSITY ALT 1500FT
Suggested Runway: 23

NOTAMs

190823 CYYZ TORONTO/LESTER B.PEARSON INTL CYYZ NUGOP THREE DEP: LITMO TRANSITION (NUGOP3.LITMO) NOT AUTH 1906251540 TIL 1908150901 

190878 CYYZ TORONTO/LESTER B.PEARSON INTL CYYZ CENTRAL DE-ICING FACILITY PAD 2 CLSD 1907081100 TIL 1907292200 

190904 CYYZ TORONTO/LESTER B.PEARSON INTL CYYZ RNAV(GNSS) Z RWY 23, RNAV (GNSS) X RWY 23 APCH: LPV AND LNAV/VNAV MINIMA: NOT AUTH 1907121245 TIL APRX 1910301900 

190930 CYYZ TORONTO/LESTER B.PEARSON INTL CYYZ TWY H BTN TWY A AND THR 23 CLSD 1907182208 TIL 1907191800 

190931 CYYZ TORONTO/LESTER B.PEARSON INTL CYYZ TWY H4 CLSD 1907182310 TIL 1907191000 

190932 CYYZ TORONTO/LESTER B.PEARSON INTL CYYZ TWY H BTN TWY H2 AND TWY H6 CLSD 1907190401 TIL 1907191000 

190590 CYOW OTTAWA/MACDONALD-CARTIER INTL CYOW TWY B CLSD BTN TWY F TO 1100 FT WEST OF TWY F DUE MAINT 1907171601 TIL 1908301600 

190290 CYXU LONDON CYXU TWY G CLSD BTN RWY 09/27 AND THR 15 1907151930 TIL 1908032100 

180389 CYHM HAMILTON CYHM AMEND PUB: APN V PERMANENTLY CLSD 

190189 CYHM HAMILTON CYHM HAMILTON NINE DEP: RWY 06: NOT AUTH 1905172200 TIL APRX 1908131800 

190217 CYHM HAMILTON CYHM RNAV (GNSS) Z RWY 24 APCH: LPV MINIMA: NOT AUTH LNAV/VNAV MINIMA: NOT AUTH LNAV MINIMA TO READ: 1260 (505) 1 1/2 DIST/ALT TABLE, CONSTANT DESCENT ANGLE AND RATE OF DESCENT INFO NOT USABLE 1905271142 TIL APRX 1908131800